Terminal Aerodrome Forecast
Issued by NWS

Home | Current Version | Previous Version | Text Only | Print | Product List | Glossary On
Versions: 1 2 3 4 5 6 7 8 9 10 11 12
000
FTUS46 KSTO 161100
TAFSCK
TAF
KSCK 161126Z 1612/1712 VRB05KT P6SM SKC
     FM161900 31009KT P6SM SKC
     FM170500 VRB05KT P6SM FEW250=

USA.gov is the U.S. government's official web portal to all federal, state and local government web resources and services.